Pagina principale
METAR-TAF:

METAR-TAF

Aeroporti :

Teodo, Montenegro

latitudine: 42-24N, longitudine: 018-44E, altezza: 5 m

Osservazione

Il bollettino è stato emesso 31 minuti fa, alle 10:00 UTC
Vento 7 kt da ovest, variando fra sud-ovest e ovest/nord-ovest
Temperature 21°C
Umidità 40%
Pressione 1015 hPa
Visibilità 10 km o più
Poco nuvoloso ad un'altezza di 6000 ft

METAR: LYTV 211000Z 26007KT 220V290 9999 FEW060 21/07 Q1015 NOSIG

Ora: 12:31 (10:31 UTC)

Previsione

Il bollettino è stato emesso 5 ore e 31 minuti fa, alle 05:00 UTC
Previsione valida dal 21 alle 06 UTC al 22 alle 06 UTC
Vento 7 kt da sud-ovest
Visibilità 10 km o più
Nubi sparse ad un'altezza di 3300 ft

TAF: LYTV 210500Z 2106/2206 22007KT 9999 SCT033 TX22/2113Z TN11/2203Z

Osservazioni e previsioni meteorologiche di più di 4000 aeroporti (messaggi METAR e TAF).

Le stazioni disponibili sono rappresentate dai dischi gialli e rossi sulla carta.

Puntare il mouse per vedere il nome della stazione.

Clicca sopra per visualizzare le osservazioni e previsioni meteorologiche.

Per cambiare la mappa : fare clic sui pulsanti verdi con una croce nera per ingrandire, il pulsante verde con un trattino per diminuire, o sulla freccia verde per le mappe adiacenti.


METAR-TAF: